Portada
METAR-TAF:

METAR-TAF

Aeropuertos :

Granada, España

Aeropuerto de Granada

latitud: 37-11N, longitud: 003-47W, altitud: 567 m

Observación

El informe se hizo hace 19 minutos, a las 09:00 UTC
Viento calma
Temperatura 18°C
Humedad 56%
Presión 1017 hPa
Visibilidad 10 km o más
sin nubes por debajo de 1500 m y sin presencia de cumulonimbus.

METAR: LEGR 240900Z 00000KT CAVOK 18/09 Q1017

Hora: 11:19 (09:19 UTC)

Pronóstico

El informe se hizo hace 1 hora y 19 minutos, a las 08:00 UTC
Pronóstico válido del 24 a las 09 UTC al 25 a las 09 UTC
Viento 2 kt con dirección variable
Visibilidad 10 km o más
Escasas nubes a una altura de 5000 ft
Temporalmente
del 24 a las 12 UTC al 24 a las 20 UTC
Viento 10 kt del sur-suroeste
Nubes dispersas a una altura de 4000 ft, Cumulonimbus.

TAF: LEGR 240800Z 2409/2509 VRB02KT 9999 FEW050 TX28/2415Z TN11/2505Z TEMPO 2412/2420 20010KT SCT040CB

Observaciones y pronósticos meteorológicos de más de 4000 aeropuertos (mensajes METAR y TAF).

Los puntos amarillos y rojos representan las estaciones disponibles.

Ponga el ratón en el punto deseado para ver el nombre de la estación.

Haga clic para ver las observaciones y los pronósticos meteorológicos.

Para cambiar el mapa : haga clic en los botones verdes con una cruz de color negro para hacer un zoom, en el botón verde con un guión para alejar o en las flechas verdes para mapas adyacentes.


METAR-TAF: